sensor_id;sensor_type;location;lat;lon;timestamp;temperature;humidity
16243;DHT22;11719;51.052;6.982;2023-05-27T00:01:08;17.30;99.90
16243;DHT22;11719;51.052;6.982;2023-05-27T00:03:33;17.20;99.90
16243;DHT22;11719;51.052;6.982;2023-05-27T00:06:00;17.00;99.90
16243;DHT22;11719;51.052;6.982;2023-05-27T00:08:26;16.90;99.90
16243;DHT22;11719;51.052;6.982;2023-05-27T00:10:52;16.80;99.90
16243;DHT22;11719;51.052;6.982;2023-05-27T00:13:18;16.80;99.90
16243;DHT22;11719;51.052;6.982;2023-05-27T00:15:43;16.80;99.90
16243;DHT22;11719;51.052;6.982;2023-05-27T00:18:10;16.80;99.90
16243;DHT22;11719;51.052;6.982;2023-05-27T00:20:36;16.70;99.90
16243;DHT22;11719;51.052;6.982;2023-05-27T00:23:02;16.70;99.90
16243;DHT22;11719;51.052;6.982;2023-05-27T00:25:28;16.80;99.90
16243;DHT22;11719;51.052;6.982;2023-05-27T00:27:55;16.80;99.90
16243;DHT22;11719;51.052;6.982;2023-05-27T00:30:21;16.90;99.90
16243;DHT22;11719;51.052;6.982;2023-05-27T00:32:47;16.90;99.90
16243;DHT22;11719;51.052;6.982;2023-05-27T00:35:13;17.00;99.90
16243;DHT22;11719;51.052;6.982;2023-05-27T00:37:40;17.00;99.90
16243;DHT22;11719;51.052;6.982;2023-05-27T00:40:10;17.00;99.90
16243;DHT22;11719;51.052;6.982;2023-05-27T00:42:37;17.00;99.90
16243;DHT22;11719;51.052;6.982;2023-05-27T00:45:04;17.00;99.90
16243;DHT22;11719;51.052;6.982;2023-05-27T00:47:31;16.80;99.90
16243;DHT22;11719;51.052;6.982;2023-05-27T00:49:58;17.00;99.90
16243;DHT22;11719;51.052;6.982;2023-05-27T00:52:24;17.00;99.90
16243;DHT22;11719;51.052;6.982;2023-05-27T00:54:52;17.10;99.90
16243;DHT22;11719;51.052;6.982;2023-05-27T00:57:19;17.00;99.90
16243;DHT22;11719;51.052;6.982;2023-05-27T00:59:46;17.00;99.90
16243;DHT22;11719;51.052;6.982;2023-05-27T01:02:12;16.90;99.90
16243;DHT22;11719;51.052;6.982;2023-05-27T01:04:38;16.90;99.90
16243;DHT22;11719;51.052;6.982;2023-05-27T01:10:00;16.70;99.90
16243;DHT22;11719;51.052;6.982;2023-05-27T01:12:46;16.70;99.90
16243;DHT22;11719;51.052;6.982;2023-05-27T01:15:16;16.70;99.90
16243;DHT22;11719;51.052;6.982;2023-05-27T01:17:44;16.70;99.90
16243;DHT22;11719;51.052;6.982;2023-05-27T01:20:12;16.70;99.90
16243;DHT22;11719;51.052;6.982;2023-05-27T01:22:41;16.70;99.90
16243;DHT22;11719;51.052;6.982;2023-05-27T01:25:09;16.70;99.90
16243;DHT22;11719;51.052;6.982;2023-05-27T01:27:36;16.70;99.90
16243;DHT22;11719;51.052;6.982;2023-05-27T01:30:06;16.80;99.90
16243;DHT22;11719;51.052;6.982;2023-05-27T01:33:08;16.80;99.90
16243;DHT22;11719;51.052;6.982;2023-05-27T01:35:51;16.80;99.90
16243;DHT22;11719;51.052;6.982;2023-05-27T01:38:21;16.80;99.90
16243;DHT22;11719;51.052;6.982;2023-05-27T01:40:50;16.80;99.90
16243;DHT22;11719;51.052;6.982;2023-05-27T01:43:17;16.80;99.90
16243;DHT22;11719;51.052;6.982;2023-05-27T01:45:44;16.80;99.90
16243;DHT22;11719;51.052;6.982;2023-05-27T01:48:10;16.80;99.90
16243;DHT22;11719;51.052;6.982;2023-05-27T01:50:36;16.90;99.90
16243;DHT22;11719;51.052;6.982;2023-05-27T01:53:02;16.90;99.90
16243;DHT22;11719;51.052;6.982;2023-05-27T01:55:29;17.00;99.90
16243;DHT22;11719;51.052;6.982;2023-05-27T01:57:56;17.10;99.90
16243;DHT22;11719;51.052;6.982;2023-05-27T02:00:23;17.10;99.90
16243;DHT22;11719;51.052;6.982;2023-05-27T02:02:49;17.00;99.90
16243;DHT22;11719;51.052;6.982;2023-05-27T02:05:15;17.00;99.90
16243;DHT22;11719;51.052;6.982;2023-05-27T02:07:41;17.00;99.90
16243;DHT22;11719;51.052;6.982;2023-05-27T02:10:08;17.00;99.90
16243;DHT22;11719;51.052;6.982;2023-05-27T02:12:34;17.10;99.90
16243;DHT22;11719;51.052;6.982;2023-05-27T02:15:00;17.10;99.90
16243;DHT22;11719;51.052;6.982;2023-05-27T02:17:26;17.00;99.90
16243;DHT22;11719;51.052;6.982;2023-05-27T02:19:52;16.90;99.90
16243;DHT22;11719;51.052;6.982;2023-05-27T02:22:21;16.80;99.90
16243;DHT22;11719;51.052;6.982;2023-05-27T02:24:47;16.80;99.90
16243;DHT22;11719;51.052;6.982;2023-05-27T02:27:13;16.80;99.90
16243;DHT22;11719;51.052;6.982;2023-05-27T02:29:38;16.80;99.90
16243;DHT22;11719;51.052;6.982;2023-05-27T02:32:04;16.90;99.90
16243;DHT22;11719;51.052;6.982;2023-05-27T02:34:31;16.80;99.90
16243;DHT22;11719;51.052;6.982;2023-05-27T02:37:01;16.80;99.90
16243;DHT22;11719;51.052;6.982;2023-05-27T02:39:27;16.70;99.90
16243;DHT22;11719;51.052;6.982;2023-05-27T02:41:53;16.70;99.90
16243;DHT22;11719;51.052;6.982;2023-05-27T02:44:19;16.70;99.90
16243;DHT22;11719;51.052;6.982;2023-05-27T02:46:44;16.70;99.90
16243;DHT22;11719;51.052;6.982;2023-05-27T02:49:10;16.70;99.90
16243;DHT22;11719;51.052;6.982;2023-05-27T02:51:36;16.70;99.90
16243;DHT22;11719;51.052;6.982;2023-05-27T02:54:03;16.90;99.90
16243;DHT22;11719;51.052;6.982;2023-05-27T02:56:29;16.90;99.90
16243;DHT22;11719;51.052;6.982;2023-05-27T02:58:54;17.00;99.90
16243;DHT22;11719;51.052;6.982;2023-05-27T03:01:20;17.00;99.90
16243;DHT22;11719;51.052;6.982;2023-05-27T03:03:46;17.00;99.90
16243;DHT22;11719;51.052;6.982;2023-05-27T03:06:12;17.00;99.90
16243;DHT22;11719;51.052;6.982;2023-05-27T03:08:38;17.10;99.90
16243;DHT22;11719;51.052;6.982;2023-05-27T03:11:04;17.10;99.90
16243;DHT22;11719;51.052;6.982;2023-05-27T03:13:29;17.10;99.90
16243;DHT22;11719;51.052;6.982;2023-05-27T03:15:55;17.00;99.90
16243;DHT22;11719;51.052;6.982;2023-05-27T03:18:21;17.00;99.90
16243;DHT22;11719;51.052;6.982;2023-05-27T03:20:47;16.90;99.90
16243;DHT22;11719;51.052;6.982;2023-05-27T03:23:13;16.90;99.90
16243;DHT22;11719;51.052;6.982;2023-05-27T03:25:39;16.80;99.90
16243;DHT22;11719;51.052;6.982;2023-05-27T03:28:05;16.80;99.90
16243;DHT22;11719;51.052;6.982;2023-05-27T03:30:30;16.60;99.90
16243;DHT22;11719;51.052;6.982;2023-05-27T03:32:56;16.60;99.90
16243;DHT22;11719;51.052;6.982;2023-05-27T03:35:22;16.50;99.90
16243;DHT22;11719;51.052;6.982;2023-05-27T03:37:48;16.50;99.90
16243;DHT22;11719;51.052;6.982;2023-05-27T03:40:14;16.50;99.90
16243;DHT22;11719;51.052;6.982;2023-05-27T03:42:39;16.40;99.90
16243;DHT22;11719;51.052;6.982;2023-05-27T03:45:06;16.40;99.90
16243;DHT22;11719;51.052;6.982;2023-05-27T03:47:32;16.30;99.90
16243;DHT22;11719;51.052;6.982;2023-05-27T03:50:00;16.40;99.90
16243;DHT22;11719;51.052;6.982;2023-05-27T03:52:26;16.40;99.90
16243;DHT22;11719;51.052;6.982;2023-05-27T03:54:52;16.40;99.90
16243;DHT22;11719;51.052;6.982;2023-05-27T03:57:18;16.40;99.90
16243;DHT22;11719;51.052;6.982;2023-05-27T03:59:43;16.50;99.90
16243;DHT22;11719;51.052;6.982;2023-05-27T04:02:09;16.50;99.90
16243;DHT22;11719;51.052;6.982;2023-05-27T04:04:35;16.60;99.90
16243;DHT22;11719;51.052;6.982;2023-05-27T04:07:01;16.60;99.90
16243;DHT22;11719;51.052;6.982;2023-05-27T04:09:27;16.60;99.90
16243;DHT22;11719;51.052;6.982;2023-05-27T04:11:52;16.60;99.90
16243;DHT22;11719;51.052;6.982;2023-05-27T04:14:18;16.60;99.90
16243;DHT22;11719;51.052;6.982;2023-05-27T04:16:44;16.60;99.90
16243;DHT22;11719;51.052;6.982;2023-05-27T04:19:10;16.70;99.90
16243;DHT22;11719;51.052;6.982;2023-05-27T04:21:36;16.70;99.90
16243;DHT22;11719;51.052;6.982;2023-05-27T04:24:04;16.80;99.90
16243;DHT22;11719;51.052;6.982;2023-05-27T04:26:30;16.90;99.90
16243;DHT22;11719;51.052;6.982;2023-05-27T04:28:58;16.90;99.90
16243;DHT22;11719;51.052;6.982;2023-05-27T04:31:27;16.90;99.90
16243;DHT22;11719;51.052;6.982;2023-05-27T04:33:56;16.90;99.90
16243;DHT22;11719;51.052;6.982;2023-05-27T04:36:22;16.90;99.90
16243;DHT22;11719;51.052;6.982;2023-05-27T04:38:51;16.90;99.90
16243;DHT22;11719;51.052;6.982;2023-05-27T04:41:17;16.80;99.90
16243;DHT22;11719;51.052;6.982;2023-05-27T04:43:46;16.90;99.90
16243;DHT22;11719;51.052;6.982;2023-05-27T04:46:13;17.00;99.90
16243;DHT22;11719;51.052;6.982;2023-05-27T04:48:39;17.00;99.90
16243;DHT22;11719;51.052;6.982;2023-05-27T04:51:05;17.00;99.90
16243;DHT22;11719;51.052;6.982;2023-05-27T04:53:31;17.10;99.90
16243;DHT22;11719;51.052;6.982;2023-05-27T04:55:57;17.00;99.90
16243;DHT22;11719;51.052;6.982;2023-05-27T04:58:23;17.00;99.90
16243;DHT22;11719;51.052;6.982;2023-05-27T05:00:49;17.00;99.90
16243;DHT22;11719;51.052;6.982;2023-05-27T05:03:24;16.90;99.90
16243;DHT22;11719;51.052;6.982;2023-05-27T05:06:10;16.90;99.90
16243;DHT22;11719;51.052;6.982;2023-05-27T05:08:36;16.90;99.90
16243;DHT22;11719;51.052;6.982;2023-05-27T05:11:01;16.80;99.90
16243;DHT22;11719;51.052;6.982;2023-05-27T05:13:27;16.70;99.90
16243;DHT22;11719;51.052;6.982;2023-05-27T05:15:54;16.60;99.90
16243;DHT22;11719;51.052;6.982;2023-05-27T05:18:20;16.60;99.90
16243;DHT22;11719;51.052;6.982;2023-05-27T05:20:47;16.40;99.90
16243;DHT22;11719;51.052;6.982;2023-05-27T05:23:13;16.40;99.90
16243;DHT22;11719;51.052;6.982;2023-05-27T05:25:39;16.20;99.90
16243;DHT22;11719;51.052;6.982;2023-05-27T05:28:05;16.10;99.90
16243;DHT22;11719;51.052;6.982;2023-05-27T05:30:31;16.10;99.90
16243;DHT22;11719;51.052;6.982;2023-05-27T05:32:57;16.00;99.90
16243;DHT22;11719;51.052;6.982;2023-05-27T05:35:24;16.00;99.90
16243;DHT22;11719;51.052;6.982;2023-05-27T05:37:49;15.90;99.90
16243;DHT22;11719;51.052;6.982;2023-05-27T05:40:15;15.90;99.90
16243;DHT22;11719;51.052;6.982;2023-05-27T05:42:42;15.80;99.90
16243;DHT22;11719;51.052;6.982;2023-05-27T05:45:08;15.70;99.90
16243;DHT22;11719;51.052;6.982;2023-05-27T05:47:35;15.60;99.90
16243;DHT22;11719;51.052;6.982;2023-05-27T05:50:00;15.50;99.90
16243;DHT22;11719;51.052;6.982;2023-05-27T05:52:26;15.50;99.90
16243;DHT22;11719;51.052;6.982;2023-05-27T05:54:52;15.40;99.90
16243;DHT22;11719;51.052;6.982;2023-05-27T05:57:18;15.60;99.90
16243;DHT22;11719;51.052;6.982;2023-05-27T05:59:44;15.50;99.90
16243;DHT22;11719;51.052;6.982;2023-05-27T06:02:09;15.40;99.90
16243;DHT22;11719;51.052;6.982;2023-05-27T06:04:35;15.30;99.90
16243;DHT22;11719;51.052;6.982;2023-05-27T06:07:01;15.50;99.90
16243;DHT22;11719;51.052;6.982;2023-05-27T06:09:27;15.50;99.90
16243;DHT22;11719;51.052;6.982;2023-05-27T06:11:53;15.60;99.90
16243;DHT22;11719;51.052;6.982;2023-05-27T06:14:19;15.60;99.90
16243;DHT22;11719;51.052;6.982;2023-05-27T06:16:45;15.60;99.90
16243;DHT22;11719;51.052;6.982;2023-05-27T06:19:10;15.70;99.90
16243;DHT22;11719;51.052;6.982;2023-05-27T06:21:36;15.90;99.90
16243;DHT22;11719;51.052;6.982;2023-05-27T06:24:02;16.00;99.90
16243;DHT22;11719;51.052;6.982;2023-05-27T06:26:28;15.90;99.90
16243;DHT22;11719;51.052;6.982;2023-05-27T06:28:54;15.90;99.90
16243;DHT22;11719;51.052;6.982;2023-05-27T06:31:19;16.00;99.90
16243;DHT22;11719;51.052;6.982;2023-05-27T06:33:45;15.90;99.90
16243;DHT22;11719;51.052;6.982;2023-05-27T06:36:11;15.90;99.90
16243;DHT22;11719;51.052;6.982;2023-05-27T06:38:37;16.00;99.90
16243;DHT22;11719;51.052;6.982;2023-05-27T06:41:03;16.10;99.90
16243;DHT22;11719;51.052;6.982;2023-05-27T06:43:29;16.20;99.90
16243;DHT22;11719;51.052;6.982;2023-05-27T06:45:54;16.20;99.90
16243;DHT22;11719;51.052;6.982;2023-05-27T06:48:20;16.10;99.90
16243;DHT22;11719;51.052;6.982;2023-05-27T06:50:46;16.10;99.90
16243;DHT22;11719;51.052;6.982;2023-05-27T06:53:12;16.00;99.90
16243;DHT22;11719;51.052;6.982;2023-05-27T06:55:39;16.10;99.90
16243;DHT22;11719;51.052;6.982;2023-05-27T06:58:04;16.00;99.90
16243;DHT22;11719;51.052;6.982;2023-05-27T07:00:32;16.00;99.90
16243;DHT22;11719;51.052;6.982;2023-05-27T07:02:58;16.10;99.90
16243;DHT22;11719;51.052;6.982;2023-05-27T07:05:25;16.10;99.90
16243;DHT22;11719;51.052;6.982;2023-05-27T07:07:52;16.10;99.90
16243;DHT22;11719;51.052;6.982;2023-05-27T07:10:18;16.30;99.90
16243;DHT22;11719;51.052;6.982;2023-05-27T07:12:43;16.30;99.90
16243;DHT22;11719;51.052;6.982;2023-05-27T07:15:09;16.40;99.90
16243;DHT22;11719;51.052;6.982;2023-05-27T07:17:36;16.40;99.90
16243;DHT22;11719;51.052;6.982;2023-05-27T07:20:01;16.60;99.90
16243;DHT22;11719;51.052;6.982;2023-05-27T07:22:27;16.80;99.90
16243;DHT22;11719;51.052;6.982;2023-05-27T07:24:54;17.10;99.90
16243;DHT22;11719;51.052;6.982;2023-05-27T07:27:20;17.20;99.90
16243;DHT22;11719;51.052;6.982;2023-05-27T07:29:46;17.30;99.90
16243;DHT22;11719;51.052;6.982;2023-05-27T07:32:11;17.20;99.90
16243;DHT22;11719;51.052;6.982;2023-05-27T07:34:37;17.10;99.90
16243;DHT22;11719;51.052;6.982;2023-05-27T07:37:03;17.30;99.90
16243;DHT22;11719;51.052;6.982;2023-05-27T07:39:29;17.30;99.90
16243;DHT22;11719;51.052;6.982;2023-05-27T07:41:55;17.50;99.90
16243;DHT22;11719;51.052;6.982;2023-05-27T07:44:20;17.60;99.90
16243;DHT22;11719;51.052;6.982;2023-05-27T07:46:46;17.70;99.90
16243;DHT22;11719;51.052;6.982;2023-05-27T07:49:13;17.70;99.90
16243;DHT22;11719;51.052;6.982;2023-05-27T07:51:40;17.60;99.90
16243;DHT22;11719;51.052;6.982;2023-05-27T07:54:06;17.60;99.90
16243;DHT22;11719;51.052;6.982;2023-05-27T07:56:31;17.50;99.90
16243;DHT22;11719;51.052;6.982;2023-05-27T07:58:59;17.50;99.90
16243;DHT22;11719;51.052;6.982;2023-05-27T08:01:25;17.50;99.90
16243;DHT22;11719;51.052;6.982;2023-05-27T08:03:56;17.60;99.90
16243;DHT22;11719;51.052;6.982;2023-05-27T08:06:21;17.60;99.90
16243;DHT22;11719;51.052;6.982;2023-05-27T08:08:47;17.70;99.90
16243;DHT22;11719;51.052;6.982;2023-05-27T08:11:13;17.70;99.90
16243;DHT22;11719;51.052;6.982;2023-05-27T08:13:39;17.60;99.90
16243;DHT22;11719;51.052;6.982;2023-05-27T08:16:05;17.70;99.90
16243;DHT22;11719;51.052;6.982;2023-05-27T08:18:32;17.70;99.90
16243;DHT22;11719;51.052;6.982;2023-05-27T08:20:58;17.80;99.90
16243;DHT22;11719;51.052;6.982;2023-05-27T08:23:23;17.80;99.90
16243;DHT22;11719;51.052;6.982;2023-05-27T08:25:50;17.80;99.90
16243;DHT22;11719;51.052;6.982;2023-05-27T08:28:16;17.90;99.90
16243;DHT22;11719;51.052;6.982;2023-05-27T08:30:42;17.90;99.90
16243;DHT22;11719;51.052;6.982;2023-05-27T08:33:08;18.00;99.90
16243;DHT22;11719;51.052;6.982;2023-05-27T08:35:33;18.00;99.90
16243;DHT22;11719;51.052;6.982;2023-05-27T08:37:59;18.10;99.90
16243;DHT22;11719;51.052;6.982;2023-05-27T08:40:26;18.10;99.90
16243;DHT22;11719;51.052;6.982;2023-05-27T08:42:52;18.20;99.90
16243;DHT22;11719;51.052;6.982;2023-05-27T08:45:18;18.20;99.90
16243;DHT22;11719;51.052;6.982;2023-05-27T08:47:43;18.30;99.90
16243;DHT22;11719;51.052;6.982;2023-05-27T08:50:10;18.30;99.90
16243;DHT22;11719;51.052;6.982;2023-05-27T08:52:46;18.40;99.90
16243;DHT22;11719;51.052;6.982;2023-05-27T08:55:16;18.40;99.90
16243;DHT22;11719;51.052;6.982;2023-05-27T08:57:54;18.50;99.90
16243;DHT22;11719;51.052;6.982;2023-05-27T09:00:21;18.50;99.90
16243;DHT22;11719;51.052;6.982;2023-05-27T09:02:48;18.60;99.90
16243;DHT22;11719;51.052;6.982;2023-05-27T09:05:15;18.70;99.90
16243;DHT22;11719;51.052;6.982;2023-05-27T09:07:42;18.70;99.90
16243;DHT22;11719;51.052;6.982;2023-05-27T09:10:09;18.80;99.90
16243;DHT22;11719;51.052;6.982;2023-05-27T09:12:35;18.60;99.90
16243;DHT22;11719;51.052;6.982;2023-05-27T09:15:03;18.50;99.90
16243;DHT22;11719;51.052;6.982;2023-05-27T09:17:29;18.60;99.90
16243;DHT22;11719;51.052;6.982;2023-05-27T09:19:56;18.60;99.90
16243;DHT22;11719;51.052;6.982;2023-05-27T09:22:29;18.70;99.90
16243;DHT22;11719;51.052;6.982;2023-05-27T09:24:56;18.80;99.90
16243;DHT22;11719;51.052;6.982;2023-05-27T09:27:26;18.70;99.90
16243;DHT22;11719;51.052;6.982;2023-05-27T09:29:53;18.70;99.90
16243;DHT22;11719;51.052;6.982;2023-05-27T09:32:26;18.90;98.10
16243;DHT22;11719;51.052;6.982;2023-05-27T09:34:55;18.80;99.90
16243;DHT22;11719;51.052;6.982;2023-05-27T09:37:30;18.70;99.90
16243;DHT22;11719;51.052;6.982;2023-05-27T09:40:08;18.70;99.90
16243;DHT22;11719;51.052;6.982;2023-05-27T09:45:19;18.80;99.60
16243;DHT22;11719;51.052;6.982;2023-05-27T09:47:53;18.90;99.30
16243;DHT22;11719;51.052;6.982;2023-05-27T09:50:20;18.80;99.30
16243;DHT22;11719;51.052;6.982;2023-05-27T09:52:47;18.90;98.50
16243;DHT22;11719;51.052;6.982;2023-05-27T09:55:15;19.00;98.00
16243;DHT22;11719;51.052;6.982;2023-05-27T09:57:44;18.90;98.00
16243;DHT22;11719;51.052;6.982;2023-05-27T10:00:11;19.10;97.70
16243;DHT22;11719;51.052;6.982;2023-05-27T10:02:42;19.00;97.90
16243;DHT22;11719;51.052;6.982;2023-05-27T10:05:13;19.20;97.90
16243;DHT22;11719;51.052;6.982;2023-05-27T10:07:45;19.00;98.00
16243;DHT22;11719;51.052;6.982;2023-05-27T10:10:14;19.00;96.90
16243;DHT22;11719;51.052;6.982;2023-05-27T10:12:46;19.10;96.90
16243;DHT22;11719;51.052;6.982;2023-05-27T10:15:32;19.10;96.80
16243;DHT22;11719;51.052;6.982;2023-05-27T10:18:06;19.20;96.90
16243;DHT22;11719;51.052;6.982;2023-05-27T10:20:37;19.20;96.50
16243;DHT22;11719;51.052;6.982;2023-05-27T10:23:18;19.20;97.20
16243;DHT22;11719;51.052;6.982;2023-05-27T10:25:52;19.30;96.80
16243;DHT22;11719;51.052;6.982;2023-05-27T10:28:31;19.40;97.30
16243;DHT22;11719;51.052;6.982;2023-05-27T10:31:10;19.40;97.60
16243;DHT22;11719;51.052;6.982;2023-05-27T10:33:48;19.40;98.00
16243;DHT22;11719;51.052;6.982;2023-05-27T10:36:22;19.30;98.60
16243;DHT22;11719;51.052;6.982;2023-05-27T10:38:57;19.20;99.00
16243;DHT22;11719;51.052;6.982;2023-05-27T10:41:42;19.30;96.80
16243;DHT22;11719;51.052;6.982;2023-05-27T10:44:09;19.30;99.10
16243;DHT22;11719;51.052;6.982;2023-05-27T10:46:42;19.20;99.20
16243;DHT22;11719;51.052;6.982;2023-05-27T10:49:22;19.20;99.70
16243;DHT22;11719;51.052;6.982;2023-05-27T10:51:49;19.10;99.90
16243;DHT22;11719;51.052;6.982;2023-05-27T10:54:15;19.10;99.90
16243;DHT22;11719;51.052;6.982;2023-05-27T10:56:51;19.40;93.80
16243;DHT22;11719;51.052;6.982;2023-05-27T10:59:21;19.40;98.50
16243;DHT22;11719;51.052;6.982;2023-05-27T11:01:54;19.60;98.40
16243;DHT22;11719;51.052;6.982;2023-05-27T11:04:20;19.50;99.20
16243;DHT22;11719;51.052;6.982;2023-05-27T11:06:59;19.30;99.10
16243;DHT22;11719;51.052;6.982;2023-05-27T11:09:26;19.30;99.40
16243;DHT22;11719;51.052;6.982;2023-05-27T11:11:52;19.40;95.40
16243;DHT22;11719;51.052;6.982;2023-05-27T11:14:19;19.60;98.80
16243;DHT22;11719;51.052;6.982;2023-05-27T11:16:48;19.70;98.10
16243;DHT22;11719;51.052;6.982;2023-05-27T11:19:18;19.50;98.80
16243;DHT22;11719;51.052;6.982;2023-05-27T11:21:45;19.40;99.80
16243;DHT22;11719;51.052;6.982;2023-05-27T11:24:18;19.30;99.90
16243;DHT22;11719;51.052;6.982;2023-05-27T11:26:46;19.20;99.90
16243;DHT22;11719;51.052;6.982;2023-05-27T11:29:14;19.30;99.90
16243;DHT22;11719;51.052;6.982;2023-05-27T11:31:40;19.30;99.90
16243;DHT22;11719;51.052;6.982;2023-05-27T11:34:16;19.20;99.90
16243;DHT22;11719;51.052;6.982;2023-05-27T11:36:48;19.10;98.20
16243;DHT22;11719;51.052;6.982;2023-05-27T11:39:15;19.20;99.90
16243;DHT22;11719;51.052;6.982;2023-05-27T11:41:51;19.30;99.80
16243;DHT22;11719;51.052;6.982;2023-05-27T11:44:20;19.20;99.90
16243;DHT22;11719;51.052;6.982;2023-05-27T11:46:48;19.10;99.90
16243;DHT22;11719;51.052;6.982;2023-05-27T11:49:16;19.00;99.90
16243;DHT22;11719;51.052;6.982;2023-05-27T11:51:48;19.00;99.90
16243;DHT22;11719;51.052;6.982;2023-05-27T11:56:48;19.00;99.90
16243;DHT22;11719;51.052;6.982;2023-05-27T11:59:16;18.90;99.90
16243;DHT22;11719;51.052;6.982;2023-05-27T12:01:43;19.00;99.90
16243;DHT22;11719;51.052;6.982;2023-05-27T12:04:09;19.00;99.90
16243;DHT22;11719;51.052;6.982;2023-05-27T12:06:36;19.00;99.50
16243;DHT22;11719;51.052;6.982;2023-05-27T12:09:06;19.00;99.90
16243;DHT22;11719;51.052;6.982;2023-05-27T12:11:33;19.00;99.90
16243;DHT22;11719;51.052;6.982;2023-05-27T12:14:00;18.90;99.90
16243;DHT22;11719;51.052;6.982;2023-05-27T12:16:26;18.90;99.90
16243;DHT22;11719;51.052;6.982;2023-05-27T12:18:53;18.90;99.90
16243;DHT22;11719;51.052;6.982;2023-05-27T12:21:19;18.90;99.90
16243;DHT22;11719;51.052;6.982;2023-05-27T12:23:46;19.00;99.90
16243;DHT22;11719;51.052;6.982;2023-05-27T12:26:14;19.10;97.80
16243;DHT22;11719;51.052;6.982;2023-05-27T12:28:41;19.40;97.10
16243;DHT22;11719;51.052;6.982;2023-05-27T12:31:07;19.40;99.40
16243;DHT22;11719;51.052;6.982;2023-05-27T12:33:33;19.30;99.90
16243;DHT22;11719;51.052;6.982;2023-05-27T12:36:01;19.30;99.90
16243;DHT22;11719;51.052;6.982;2023-05-27T12:38:27;19.30;99.30
16243;DHT22;11719;51.052;6.982;2023-05-27T12:40:53;19.40;99.90
16243;DHT22;11719;51.052;6.982;2023-05-27T12:43:21;19.30;99.90
16243;DHT22;11719;51.052;6.982;2023-05-27T12:45:48;19.30;99.90
16243;DHT22;11719;51.052;6.982;2023-05-27T12:48:14;19.50;99.90
16243;DHT22;11719;51.052;6.982;2023-05-27T12:50:40;19.50;99.90
16243;DHT22;11719;51.052;6.982;2023-05-27T12:53:08;19.40;99.90
16243;DHT22;11719;51.052;6.982;2023-05-27T12:55:34;19.40;99.90
16243;DHT22;11719;51.052;6.982;2023-05-27T12:58:01;19.50;99.90
16243;DHT22;11719;51.052;6.982;2023-05-27T13:00:27;19.70;99.70
16243;DHT22;11719;51.052;6.982;2023-05-27T13:02:53;19.90;98.80
16243;DHT22;11719;51.052;6.982;2023-05-27T13:05:19;20.30;92.10
16243;DHT22;11719;51.052;6.982;2023-05-27T13:08:01;20.50;97.30
16243;DHT22;11719;51.052;6.982;2023-05-27T13:10:30;20.30;96.30
16243;DHT22;11719;51.052;6.982;2023-05-27T13:12:57;20.00;98.10
16243;DHT22;11719;51.052;6.982;2023-05-27T13:15:24;20.00;98.80
16243;DHT22;11719;51.052;6.982;2023-05-27T13:17:51;19.70;99.10
16243;DHT22;11719;51.052;6.982;2023-05-27T13:20:19;19.80;99.00
16243;DHT22;11719;51.052;6.982;2023-05-27T13:22:46;19.60;99.50
16243;DHT22;11719;51.052;6.982;2023-05-27T13:25:14;19.70;95.70
16243;DHT22;11719;51.052;6.982;2023-05-27T13:27:41;20.30;97.20
16243;DHT22;11719;51.052;6.982;2023-05-27T13:30:08;20.10;97.90
16243;DHT22;11719;51.052;6.982;2023-05-27T13:32:35;20.00;98.00
16243;DHT22;11719;51.052;6.982;2023-05-27T13:35:01;19.90;98.00
16243;DHT22;11719;51.052;6.982;2023-05-27T13:37:28;19.90;98.20
16243;DHT22;11719;51.052;6.982;2023-05-27T13:39:54;20.10;93.80
16243;DHT22;11719;51.052;6.982;2023-05-27T13:42:21;20.00;97.70
16243;DHT22;11719;51.052;6.982;2023-05-27T13:44:46;20.00;95.40
16243;DHT22;11719;51.052;6.982;2023-05-27T13:47:12;20.40;95.00
16243;DHT22;11719;51.052;6.982;2023-05-27T13:49:38;20.40;96.40
16243;DHT22;11719;51.052;6.982;2023-05-27T13:52:04;20.30;97.00
16243;DHT22;11719;51.052;6.982;2023-05-27T13:54:30;20.00;98.10
16243;DHT22;11719;51.052;6.982;2023-05-27T13:56:56;20.10;97.90
16243;DHT22;11719;51.052;6.982;2023-05-27T13:59:22;20.10;97.80
16243;DHT22;11719;51.052;6.982;2023-05-27T14:01:47;20.30;97.60
16243;DHT22;11719;51.052;6.982;2023-05-27T14:04:15;20.40;96.90
16243;DHT22;11719;51.052;6.982;2023-05-27T14:06:41;20.40;97.30
16243;DHT22;11719;51.052;6.982;2023-05-27T14:09:07;20.60;88.20
16243;DHT22;11719;51.052;6.982;2023-05-27T14:11:33;20.70;96.40
16243;DHT22;11719;51.052;6.982;2023-05-27T14:13:59;20.50;96.60
16243;DHT22;11719;51.052;6.982;2023-05-27T14:16:25;20.20;97.70
16243;DHT22;11719;51.052;6.982;2023-05-27T14:18:51;20.10;97.90
16243;DHT22;11719;51.052;6.982;2023-05-27T14:21:17;20.00;97.90
16243;DHT22;11719;51.052;6.982;2023-05-27T14:23:43;20.20;96.60
16243;DHT22;11719;51.052;6.982;2023-05-27T14:26:09;20.30;97.00
16243;DHT22;11719;51.052;6.982;2023-05-27T14:28:36;20.20;97.30
16243;DHT22;11719;51.052;6.982;2023-05-27T14:31:02;20.20;97.60
16243;DHT22;11719;51.052;6.982;2023-05-27T14:33:27;20.10;97.70
16243;DHT22;11719;51.052;6.982;2023-05-27T14:35:53;19.90;98.10
16243;DHT22;11719;51.052;6.982;2023-05-27T14:38:19;19.80;98.60
16243;DHT22;11719;51.052;6.982;2023-05-27T14:40:46;19.80;98.10
16243;DHT22;11719;51.052;6.982;2023-05-27T14:43:13;19.80;98.10
16243;DHT22;11719;51.052;6.982;2023-05-27T14:45:40;19.70;98.90
16243;DHT22;11719;51.052;6.982;2023-05-27T14:48:07;19.80;98.30
16243;DHT22;11719;51.052;6.982;2023-05-27T14:50:33;20.20;88.80
16243;DHT22;11719;51.052;6.982;2023-05-27T14:52:59;20.50;95.70
16243;DHT22;11719;51.052;6.982;2023-05-27T14:55:25;20.40;95.80
16243;DHT22;11719;51.052;6.982;2023-05-27T14:57:51;20.30;96.30
16243;DHT22;11719;51.052;6.982;2023-05-27T15:00:17;20.20;96.80
16243;DHT22;11719;51.052;6.982;2023-05-27T15:02:43;20.10;97.10
16243;DHT22;11719;51.052;6.982;2023-05-27T15:05:10;19.80;98.00
16243;DHT22;11719;51.052;6.982;2023-05-27T15:07:36;19.60;98.70
16243;DHT22;11719;51.052;6.982;2023-05-27T15:10:04;19.60;98.70
16243;DHT22;11719;51.052;6.982;2023-05-27T15:12:42;19.60;98.20
16243;DHT22;11719;51.052;6.982;2023-05-27T15:15:13;19.70;93.70
16243;DHT22;11719;51.052;6.982;2023-05-27T15:17:41;19.90;97.00
16243;DHT22;11719;51.052;6.982;2023-05-27T15:20:10;19.80;97.10
16243;DHT22;11719;51.052;6.982;2023-05-27T15:22:39;19.60;98.80
16243;DHT22;11719;51.052;6.982;2023-05-27T15:25:06;19.60;99.00
16243;DHT22;11719;51.052;6.982;2023-05-27T15:27:32;19.80;88.60
16243;DHT22;11719;51.052;6.982;2023-05-27T15:29:58;20.30;95.90
16243;DHT22;11719;51.052;6.982;2023-05-27T15:32:24;20.20;96.00
16243;DHT22;11719;51.052;6.982;2023-05-27T15:34:50;20.00;97.00
16243;DHT22;11719;51.052;6.982;2023-05-27T15:37:19;19.70;97.40
16243;DHT22;11719;51.052;6.982;2023-05-27T15:39:45;19.60;98.20